NCAR-RAP Real-Time Weather Data

Output produced by METARs form (19 September 2014  19:51 UTC)
found at http://weather.rap.ucar.edu/surface/
 
Conditions at: KALB observed 19 September 2014  18:51 UTC
Temperature: 15.0°C (59°F)
Dewpoint: 2.2°C (36°F) [RH = 42%]
Pressure (altimeter): 30.36 inches Hg (1028.2 mb)
[Sea-level pressure: 1028.0 mb]
Winds: calm
Visibility: 10 or more miles (16+ km)
Ceiling: at least 12,000 feet AGL
Clouds: few clouds at 25000 feet AGL
Present Weather: no significant weather observed at this time
KALB 191851Z 00000KT 10SM FEW250 15/02 A3036 RMK AO2 SLP280 T01500022

Conditions at: KALB observed 19 September 2014  17:51 UTC
Temperature: 14.4°C (58°F)
Dewpoint: 1.7°C (35°F) [RH = 42%]
Pressure (altimeter): 30.38 inches Hg (1028.9 mb)
[Sea-level pressure: 1028.9 mb]
Winds: from the NE (40 degrees) at 6 MPH (5 knots; 2.6 m/s)
Visibility: 10 or more miles (16+ km)
Ceiling: at least 12,000 feet AGL
Clouds: few clouds at 5000 feet AGL
few clouds at 25000 feet AGL
Present Weather: no significant weather observed at this time
KALB 191751Z 04005KT 10SM FEW050 FEW250 14/02 A3038 RMK AO2 SLP289 T01440017 10144 20061 58005

Conditions at: KALB observed 19 September 2014  16:51 UTC
Temperature: 13.3°C (56°F)
Dewpoint: 1.1°C (34°F) [RH = 43%]
Pressure (altimeter): 30.39 inches Hg (1029.2 mb)
[Sea-level pressure: 1029.3 mb]
Winds: variable direction winds at 7 MPH (6 knots; 3.1 m/s)
Visibility: 10 or more miles (16+ km)
Ceiling: at least 12,000 feet AGL
Clouds: few clouds at 5000 feet AGL
few clouds at 25000 feet AGL
Present Weather: no significant weather observed at this time
KALB 191651Z VRB06KT 10SM FEW050 FEW250 13/01 A3039 RMK AO2 SLP293 T01330011

Conditions at: KALB observed 19 September 2014  15:51 UTC
Temperature: 11.7°C (53°F)
Dewpoint: 1.1°C (34°F) [RH = 48%]
Pressure (altimeter): 30.40 inches Hg (1029.5 mb)
[Sea-level pressure: 1029.4 mb]
Winds: variable direction winds at 7 MPH (6 knots; 3.1 m/s)
Visibility: 10 or more miles (16+ km)
Ceiling: at least 12,000 feet AGL
Clouds: few clouds at 4300 feet AGL
few clouds at 25000 feet AGL
Present Weather: no significant weather observed at this time
KALB 191551Z VRB06KT 10SM FEW043 FEW250 12/01 A3040 RMK AO2 SLP294 T01170011

Conditions at: KALB observed 19 September 2014  14:51 UTC
Temperature: 11.1°C (52°F)
Dewpoint: 1.7°C (35°F) [RH = 52%]
Pressure (altimeter): 30.40 inches Hg (1029.5 mb)
[Sea-level pressure: 1029.4 mb]
Winds: from the NNE (20 degrees) at 7 MPH (6 knots; 3.1 m/s)
Visibility: 10 or more miles (16+ km)
Ceiling: at least 12,000 feet AGL
Clouds: few clouds at 4000 feet AGL
few clouds at 25000 feet AGL
Present Weather: no significant weather observed at this time
KALB 191451Z 02006KT 10SM FEW040 FEW250 11/02 A3040 RMK AO2 SLP294 T01110017 51007

Conditions at: KALB observed 19 September 2014  13:51 UTC
Temperature: 10.0°C (50°F)
Dewpoint: 2.2°C (36°F) [RH = 58%]
Pressure (altimeter): 30.39 inches Hg (1029.2 mb)
[Sea-level pressure: 1029.2 mb]
Winds: from the ENE (60 degrees) at 7 MPH (6 knots; 3.1 m/s)
Visibility: 10 or more miles (16+ km)
Ceiling: at least 12,000 feet AGL
Clouds: few clouds at 4000 feet AGL
Present Weather: no significant weather observed at this time
KALB 191351Z 06006KT 10SM FEW040 10/02 A3039 RMK AO2 SLP292 T01000022

Conditions at: KALB observed 19 September 2014  12:51 UTC
Temperature: 7.8°C (46°F)
Dewpoint: 1.1°C (34°F) [RH = 63%]
Pressure (altimeter): 30.39 inches Hg (1029.2 mb)
[Sea-level pressure: 1029.2 mb]
Winds: from the N (10 degrees) at 9 MPH (8 knots; 4.2 m/s)
Visibility: 10 or more miles (16+ km)
Ceiling: at least 12,000 feet AGL
Clouds: few clouds at 4200 feet AGL
Present Weather: no significant weather observed at this time
KALB 191251Z 01008KT 10SM FEW042 08/01 A3039 RMK AO2 SLP292 T00780011

Conditions at: KALB observed 19 September 2014  11:51 UTC
Temperature: 6.1°C (43°F)
Dewpoint: 1.1°C (34°F) [RH = 70%]
Pressure (altimeter): 30.38 inches Hg (1028.9 mb)
[Sea-level pressure: 1028.8 mb]
Winds: from the N (10 degrees) at 10 MPH (9 knots; 4.7 m/s)
Visibility: 10 or more miles (16+ km)
Ceiling: at least 12,000 feet AGL
Clouds: few clouds at 4200 feet AGL
scattered clouds at 25000 feet AGL
Present Weather: no significant weather observed at this time
KALB 191151Z 01009KT 10SM FEW042 SCT250 06/01 A3038 RMK AO2 SLP288 T00610011 10083 20056 53024

Conditions at: KALB observed 19 September 2014  10:51 UTC
Temperature: 5.6°C (42°F)
Dewpoint: 1.1°C (34°F) [RH = 73%]
Pressure (altimeter): 30.35 inches Hg (1027.9 mb)
[Sea-level pressure: 1027.9 mb]
Winds: from the N (10 degrees) at 8 MPH (7 knots; 3.6 m/s)
Visibility: 10 or more miles (16+ km)
Ceiling: 4200 feet AGL
Clouds: broken clouds at 4200 feet AGL
broken clouds at 25000 feet AGL
Present Weather: no significant weather observed at this time
KALB 191051Z 01007KT 10SM BKN042 BKN250 06/01 A3035 RMK AO2 SLP279 T00560011

Conditions at: KALB observed 19 September 2014  09:51 UTC
Temperature: 5.6°C (42°F)
Dewpoint: 1.7°C (35°F) [RH = 76%]
Pressure (altimeter): 30.33 inches Hg (1027.2 mb)
[Sea-level pressure: 1026.9 mb]
Winds: from the N (10 degrees) at 8 MPH (7 knots; 3.6 m/s)
Visibility: 10 or more miles (16+ km)
Ceiling: 4200 feet AGL
Clouds: broken clouds at 4200 feet AGL
Present Weather: no significant weather observed at this time
KALB 190951Z 01007KT 10SM BKN042 06/02 A3033 RMK AO2 SLP269 T00560017

Conditions at: KALB observed 19 September 2014  08:51 UTC
Temperature: 5.6°C (42°F)
Dewpoint: 1.7°C (35°F) [RH = 76%]
Pressure (altimeter): 30.31 inches Hg (1026.5 mb)
[Sea-level pressure: 1026.3 mb]
Winds: from the N (10 degrees) at 6 MPH (5 knots; 2.6 m/s)
Visibility: 10 or more miles (16+ km)
Ceiling: at least 12,000 feet AGL
Clouds: few clouds at 4700 feet AGL
Present Weather: no significant weather observed at this time
KALB 190851Z 01005KT 10SM FEW047 06/02 A3031 RMK AO2 SLP263 T00560017 53020